Private Wetterstation Wechselburg
Wetterdaten: Woche 27.02.23 - 05.03.23 (KW9)
Datum Zeit Temp. +2m Bodentemp. Temp.+5cm Temp. Wind Windchill X Diff Temp. Feuchte +2m Feuchte +5cm Luftdruck Regen Wind Richtung Sonnenschein Taupunkt Windchill Windben
27.02.2023 00:00 -4,5 C 5,9 C -39,6 C -5,2 C -6,4 C 0,0 C 85 % 85 % 1025,8 hPa 0,0 l/m 0,0 km/h (0 Bft) N 0,00 h -6,6 C -6,4 C 0,0 km/h (0 Bft)
27.02.2023 01:00 -5,1 C 6,0 C -39,6 C -5,8 C -7,0 C 0,0 C 86 % 85 % 1025,9 hPa 0,0 l/m 0,0 km/h (0 Bft) N 0,00 h -7,1 C -7,0 C 0,0 km/h (0 Bft)
27.02.2023 02:00 -5,9 C 5,9 C -39,6 C -6,6 C -7,8 C 0,0 C 86 % 85 % 1026,3 hPa 0,0 l/m 0,0 km/h (0 Bft) N 0,00 h -7,9 C -7,8 C 0,0 km/h (0 Bft)
27.02.2023 03:00 -6,0 C 5,8 C -39,6 C -6,3 C -6,9 C 0,0 C 87 % 85 % 1025,8 hPa 0,0 l/m 0,0 km/h (0 Bft) N 0,00 h -7,8 C -6,9 C 0,0 km/h (0 Bft)
27.02.2023 04:00 -5,1 C 5,7 C -39,6 C -5,1 C -5,2 C 0,0 C 88 % 85 % 1026,3 hPa 0,0 l/m 0,0 km/h (0 Bft) N 0,00 h -6,8 C -5,2 C 0,0 km/h (0 Bft)
27.02.2023 05:00 -4,4 C 5,6 C -39,6 C -4,5 C -4,7 C 0,0 C 88 % 84 % 1026,4 hPa 0,0 l/m 0,0 km/h (0 Bft) N 0,00 h -6,0 C -4,7 C 0,0 km/h (0 Bft)
27.02.2023 06:00 -4,0 C 5,6 C -39,6 C -4,1 C -4,4 C 0,0 C 89 % 84 % 1026,9 hPa 0,0 l/m 0,0 km/h (0 Bft) N 0,00 h -5,6 C -4,4 C 0,0 km/h (0 Bft)
27.02.2023 07:00 -3,9 C 5,5 C -39,6 C -4,0 C -4,4 C 0,0 C 89 % 83 % 1027,2 hPa 0,0 l/m 0,0 km/h (0 Bft) N 0,00 h -5,5 C -4,4 C 0,0 km/h (0 Bft)
27.02.2023 08:00 -3,4 C 5,4 C -39,6 C -3,0 C -3,0 C 0,4 C 89 % 83 % 1027,9 hPa 0,0 l/m 0,0 km/h (0 Bft) N 0,00 h -4,9 C -3,0 C 0,0 km/h (0 Bft)
27.02.2023 09:00 -2,0 C 5,2 C -39,6 C -0,4 C -0,4 C 1,6 C 89 % 81 % 1027,9 hPa 0,0 l/m 0,0 km/h (0 Bft) N 0,00 h -3,6 C -0,4 C 0,0 km/h (0 Bft)
27.02.2023 10:00 -0,2 C 5,1 C -39,6 C 2,4 C 2,4 C 2,7 C 88 % 80 % 1028,0 hPa 0,0 l/m 0,0 km/h (0 Bft) N 0,17 h -2,0 C 2,4 C 0,0 km/h (0 Bft)
27.02.2023 11:00 0,9 C 5,0 C -39,6 C 4,2 C 4,2 C 3,3 C 84 % 76 % 1028,3 hPa 0,0 l/m 0,0 km/h (0 Bft) N 0,42 h -1,5 C 4,2 C 0,0 km/h (0 Bft)
27.02.2023 12:00 1,1 C 5,0 C -39,6 C 4,1 C 4,1 C 3,0 C 81 % 73 % 1028,5 hPa 0,0 l/m 0,2 km/h (0 Bft) N 0,25 h -1,9 C 4,1 C 0,5 km/h (0 Bft)
27.02.2023 13:00 1,6 C 5,0 C -39,6 C 4,8 C 4,8 C 3,2 C 78 % 71 % 1028,1 hPa 0,7 l/m 0,3 km/h (0 Bft) O-NO 0,33 h -1,8 C 4,8 C 1,6 km/h (1 Bft)
27.02.2023 14:00 1,5 C 5,0 C -39,6 C 4,1 C 4,1 C 2,6 C 75 % 68 % 1028,1 hPa 0,7 l/m 0,3 km/h (0 Bft) N 0,17 h -2,4 C 4,1 C 0,0 km/h (0 Bft)
27.02.2023 15:00 1,8 C 5,0 C -39,6 C 3,8 C 3,8 C 2,0 C 74 % 68 % 1027,6 hPa 0,0 l/m 0,1 km/h (0 Bft) N 0,00 h -2,3 C 3,8 C 0,0 km/h (0 Bft)
27.02.2023 16:00 0,6 C 5,1 C -39,6 C 0,7 C 0,6 C 0,1 C 78 % 71 % 1028,3 hPa 0,0 l/m 0,1 km/h (0 Bft) N 0,00 h -2,9 C 0,6 C 0,0 km/h (0 Bft)
27.02.2023 17:00 0,4 C 5,1 C -39,6 C 0,4 C 0,3 C 0,1 C 80 % 74 % 1028,6 hPa 0,0 l/m 0,1 km/h (0 Bft) N 0,00 h -2,6 C 0,3 C 0,3 km/h (0 Bft)
27.02.2023 18:00 -0,3 C 5,2 C -39,6 C -0,7 C -1,6 C 0,0 C 81 % 76 % 1028,8 hPa 0,0 l/m 0,0 km/h (0 Bft) N 0,00 h -3,1 C -1,6 C 0,0 km/h (0 Bft)
27.02.2023 19:00 -0,8 C 5,3 C -39,6 C -1,1 C -1,7 C 0,0 C 83 % 78 % 1029,1 hPa 0,0 l/m 0,0 km/h (0 Bft) N 0,00 h -3,3 C -1,7 C 0,0 km/h (0 Bft)
27.02.2023 20:00 -1,1 C 5,3 C -39,6 C -1,4 C -2,1 C 0,0 C 84 % 80 % 1030,1 hPa 0,0 l/m 0,0 km/h (0 Bft) N 0,00 h -3,4 C -2,1 C 0,0 km/h (0 Bft)
27.02.2023 21:00 -1,4 C 5,4 C -39,6 C -1,8 C -2,5 C 0,0 C 85 % 81 % 1030,4 hPa 0,0 l/m 0,0 km/h (0 Bft) N 0,00 h -3,6 C -2,5 C 0,0 km/h (0 Bft)
27.02.2023 22:00 -1,5 C 5,4 C -39,6 C -1,8 C -2,4 C 0,0 C 86 % 81 % 1030,1 hPa 0,0 l/m 0,0 km/h (0 Bft) N 0,00 h -3,5 C -2,4 C 0,0 km/h (0 Bft)
27.02.2023 23:00 -1,4 C 5,3 C -39,6 C -1,6 C -2,0 C 0,0 C 86 % 81 % 1030,1 hPa 0,0 l/m 0,0 km/h (0 Bft) N 0,00 h -3,4 C -2,0 C 0,0 km/h (0 Bft)
28.02.2023 00:00 -1,3 C 5,3 C -39,6 C -1,5 C -1,8 C 0,0 C 86 % 81 % 1030,1 hPa 0,0 l/m 0,0 km/h (0 Bft) N 0,00 h -3,3 C -1,8 C 0,0 km/h (0 Bft)
28.02.2023 01:00 -1,2 C 5,3 C -39,6 C -1,4 C -1,8 C 0,0 C 86 % 80 % 1030,4 hPa 0,0 l/m 0,0 km/h (0 Bft) N 0,00 h -3,3 C -1,8 C 0,0 km/h (0 Bft)
28.02.2023 02:00 -1,5 C 5,4 C -39,6 C -1,9 C -2,7 C 0,0 C 86 % 80 % 1029,7 hPa 0,0 l/m 0,0 km/h (0 Bft) N 0,00 h -3,6 C -2,7 C 0,0 km/h (0 Bft)
28.02.2023 03:00 -1,8 C 5,4 C -39,6 C -2,1 C -2,9 C 0,0 C 86 % 81 % 1029,4 hPa 0,0 l/m 0,0 km/h (0 Bft) N 0,00 h -3,9 C -2,9 C 0,0 km/h (0 Bft)
28.02.2023 04:00 -1,5 C 5,3 C -39,6 C -1,7 C -2,1 C 0,0 C 86 % 80 % 1029,4 hPa 0,0 l/m 0,1 km/h (0 Bft) N 0,00 h -3,5 C -2,1 C 0,3 km/h (0 Bft)
28.02.2023 05:00 -1,5 C 5,3 C -39,6 C -1,8 C -2,3 C 0,0 C 85 % 79 % 1029,6 hPa 0,0 l/m 0,0 km/h (0 Bft) N 0,00 h -3,7 C -2,3 C 0,0 km/h (0 Bft)
28.02.2023 06:00 -1,6 C 5,3 C -39,6 C -1,9 C -2,5 C 0,0 C 85 % 79 % 1029,6 hPa 0,0 l/m 0,1 km/h (0 Bft) N 0,00 h -3,8 C -2,5 C 0,6 km/h (0 Bft)
28.02.2023 07:00 -1,9 C 5,1 C -39,6 C -2,1 C -2,5 C 0,1 C 85 % 80 % 1029,8 hPa 0,0 l/m 0,1 km/h (0 Bft) N 0,00 h -4,1 C -2,5 C 0,2 km/h (0 Bft)
28.02.2023 08:00 -1,4 C 5,0 C -39,6 C -0,6 C -0,6 C 0,8 C 85 % 78 % 1030,1 hPa 0,0 l/m 0,5 km/h (0 Bft) N-NO 0,00 h -3,6 C -0,6 C 1,4 km/h (1 Bft)
28.02.2023 09:00 -0,5 C 5,0 C -39,6 C -0,1 C -0,2 C 0,4 C 80 % 69 % 1030,7 hPa 0,0 l/m 3,3 km/h (1 Bft) O-NO 0,00 h -3,6 C -0,6 C 6,6 km/h (2 Bft)
28.02.2023 10:00 0,0 C 4,9 C -39,6 C 0,7 C 0,6 C 0,7 C 73 % 64 % 1030,8 hPa 0,0 l/m 4,3 km/h (1 Bft) O-NO 0,00 h -4,2 C -0,1 C 5,5 km/h (1 Bft)
28.02.2023 11:00 1,0 C 4,8 C -39,6 C 2,3 C 1,9 C 1,3 C 68 % 59 % 1030,9 hPa 0,0 l/m 7,2 km/h (2 Bft) O-NO 0,00 h -4,3 C -0,1 C 11,8 km/h (2 Bft)
28.02.2023 12:00 1,6 C 4,8 C -39,6 C 4,5 C 4,3 C 2,9 C 66 % 56 % 1031,1 hPa 0,0 l/m 6,2 km/h (2 Bft) O-NO 0,33 h -4,1 C 3,2 C 8,5 km/h (2 Bft)
28.02.2023 13:00 2,0 C 4,9 C -39,6 C 5,7 C 5,7 C 3,8 C 66 % 57 % 1030,9 hPa 0,0 l/m 4,3 km/h (1 Bft) O-NO 0,75 h -3,8 C 5,2 C 5,5 km/h (1 Bft)
28.02.2023 14:00 2,4 C 4,9 C -39,6 C 6,6 C 6,6 C 4,2 C 65 % 57 % 1030,2 hPa 0,0 l/m 4,6 km/h (1 Bft) NO 0,92 h -3,5 C 6,1 C 5,8 km/h (2 Bft)
28.02.2023 15:00 2,3 C 5,0 C -39,6 C 5,3 C 5,3 C 3,0 C 65 % 57 % 1030,1 hPa 0,0 l/m 2,9 km/h (1 Bft) NO 0,25 h -3,5 C 5,3 C 4,3 km/h (1 Bft)
28.02.2023 16:00 2,2 C 5,1 C -39,6 C 3,5 C 3,5 C 1,4 C 66 % 58 % 1030,1 hPa 0,0 l/m 2,1 km/h (1 Bft) O-NO 0,17 h -3,5 C 3,5 C 3,4 km/h (1 Bft)
28.02.2023 17:00 1,5 C 5,2 C -39,6 C 1,6 C 1,4 C 0,1 C 68 % 61 % 1030,1 hPa 0,0 l/m 0,3 km/h (0 Bft) N 0,00 h -3,7 C 1,4 C 0,3 km/h (0 Bft)
28.02.2023 18:00 0,4 C 5,2 C -39,6 C -0,1 C -1,1 C 0,0 C 72 % 67 % 1030,1 hPa 0,0 l/m 0,0 km/h (0 Bft) N 0,00 h -4,0 C -1,1 C 0,0 km/h (0 Bft)
28.02.2023 19:00 -1,1 C 5,3 C -39,6 C -1,7 C -3,0 C 0,0 C 77 % 72 % 1030,1 hPa 0,0 l/m 0,0 km/h (0 Bft) N 0,00 h -4,7 C -3,0 C 0,0 km/h (0 Bft)
28.02.2023 20:00 -2,2 C 5,4 C -39,6 C -2,9 C -4,2 C 0,0 C 79 % 76 % 1030,4 hPa 0,0 l/m 0,0 km/h (0 Bft) N 0,00 h -5,2 C -4,2 C 0,0 km/h (0 Bft)
28.02.2023 21:00 -2,9 C 5,5 C -39,6 C -3,6 C -4,8 C 0,0 C 82 % 78 % 1030,4 hPa 0,0 l/m 0,0 km/h (0 Bft) N 0,00 h -5,6 C -4,8 C 0,0 km/h (0 Bft)
28.02.2023 22:00 -3,7 C 5,5 C -39,6 C -4,2 C -5,3 C 0,0 C 83 % 80 % 1030,5 hPa 0,0 l/m 0,0 km/h (0 Bft) N 0,00 h -6,1 C -5,3 C 0,0 km/h (0 Bft)
28.02.2023 23:00 -4,1 C 5,5 C -39,6 C -4,5 C -5,4 C 0,0 C 84 % 81 % 1030,7 hPa 0,0 l/m 0,0 km/h (0 Bft) N 0,00 h -6,3 C -5,4 C 0,0 km/h (0 Bft)
01.03.2023 00:00 -4,2 C 5,5 C -39,6 C -4,6 C -5,6 C 0,0 C 85 % 82 % 1030,5 hPa 0,0 l/m 0,0 km/h (0 Bft) N 0,00 h -6,3 C -5,6 C 0,0 km/h (0 Bft)
01.03.2023 01:00 -4,6 C 5,5 C -39,6 C -5,1 C -6,1 C 0,0 C 86 % 82 % 1030,8 hPa 0,0 l/m 0,0 km/h (0 Bft) N 0,00 h -6,6 C -6,1 C 0,0 km/h (0 Bft)
01.03.2023 02:00 -5,1 C 5,4 C -39,6 C -5,6 C -6,8 C 0,0 C 86 % 82 % 1030,4 hPa 0,0 l/m 0,0 km/h (0 Bft) N 0,00 h -7,0 C -6,8 C 0,0 km/h (0 Bft)
01.03.2023 03:00 -5,5 C 5,3 C -39,6 C -6,1 C -7,3 C 0,0 C 87 % 83 % 1029,7 hPa 0,0 l/m 0,0 km/h (0 Bft) N 0,00 h -7,4 C -7,3 C 0,0 km/h (0 Bft)
01.03.2023 04:00 -5,8 C 5,3 C -39,6 C -6,4 C -7,5 C 0,0 C 87 % 83 % 1029,5 hPa 0,0 l/m 0,0 km/h (0 Bft) N 0,00 h -7,7 C -7,5 C 0,0 km/h (0 Bft)
01.03.2023 05:00 -6,2 C 5,2 C -39,6 C -6,7 C -7,9 C 0,0 C 87 % 83 % 1029,1 hPa 0,0 l/m 0,0 km/h (0 Bft) N 0,00 h -8,0 C -7,9 C 0,0 km/h (0 Bft)
01.03.2023 06:00 -6,5 C 5,1 C -39,6 C -7,1 C -8,3 C 0,0 C 87 % 83 % 1029,2 hPa 0,0 l/m 0,0 km/h (0 Bft) N 0,00 h -8,2 C -8,3 C 0,0 km/h (0 Bft)
01.03.2023 07:00 -6,7 C 5,0 C -39,6 C -6,8 C -7,5 C 0,2 C 88 % 83 % 1029,0 hPa 0,0 l/m 0,0 km/h (0 Bft) N 0,00 h -8,3 C -7,5 C 0,0 km/h (0 Bft)
01.03.2023 08:00 -5,3 C 4,9 C -39,6 C -4,0 C -4,0 C 1,3 C 89 % 83 % 1028,8 hPa 0,0 l/m 0,0 km/h (0 Bft) N 0,00 h -6,9 C -4,0 C 0,0 km/h (0 Bft)
01.03.2023 09:00 -3,4 C 4,7 C -39,6 C -2,3 C -2,3 C 1,1 C 89 % 80 % 1028,7 hPa 0,0 l/m 0,0 km/h (0 Bft) N 0,00 h -5,0 C -2,3 C 0,0 km/h (0 Bft)
01.03.2023 10:00 -0,5 C 4,5 C -39,6 C 0,7 C 0,7 C 1,2 C 87 % 74 % 1028,5 hPa 0,0 l/m 1,8 km/h (1 Bft) O-NO 0,00 h -2,4 C 0,7 C 3,0 km/h (1 Bft)
01.03.2023 11:00 1,3 C 4,4 C -39,6 C 3,4 C 3,4 C 2,1 C 79 % 67 % 1028,2 hPa 0,0 l/m 2,1 km/h (1 Bft) O-NO 0,08 h -1,9 C 3,4 C 4,3 km/h (1 Bft)
01.03.2023 12:00 2,7 C 4,4 C -39,6 C 8,5 C 8,5 C 5,8 C 73 % 63 % 1028,2 hPa 0,0 l/m 1,4 km/h (1 Bft) O-NO 1,00 h -1,6 C 8,5 C 2,2 km/h (1 Bft)
01.03.2023 13:00 3,3 C 4,5 C -39,6 C 8,0 C 8,0 C 4,7 C 70 % 61 % 1027,6 hPa 0,0 l/m 3,7 km/h (1 Bft) NO 1,00 h -1,6 C 7,7 C 5,8 km/h (2 Bft)
01.03.2023 14:00 3,9 C 4,5 C -39,6 C 8,9 C 8,9 C 4,9 C 68 % 59 % 1027,1 hPa 0,0 l/m 2,8 km/h (1 Bft) O-NO 1,00 h -1,4 C 8,9 C 4,4 km/h (1 Bft)
01.03.2023 15:00 4,4 C 4,5 C -39,6 C 8,4 C 8,4 C 4,0 C 64 % 55 % 1026,8 hPa 0,0 l/m 2,5 km/h (1 Bft) NO 1,00 h -1,8 C 8,4 C 5,0 km/h (1 Bft)
01.03.2023 16:00 4,6 C 4,7 C -39,6 C 6,2 C 6,2 C 1,6 C 60 % 52 % 1026,5 hPa 0,0 l/m 2,4 km/h (1 Bft) NO 0,08 h -2,5 C 6,2 C 3,3 km/h (1 Bft)
01.03.2023 17:00 3,8 C 4,8 C -39,6 C 4,2 C 4,1 C 0,4 C 62 % 55 % 1026,5 hPa 0,0 l/m 0,3 km/h (0 Bft) N 0,42 h -2,7 C 4,1 C 0,1 km/h (0 Bft)
01.03.2023 18:00 1,9 C 5,0 C -39,6 C 1,4 C 0,5 C 0,0 C 67 % 61 % 1026,6 hPa 0,0 l/m 0,0 km/h (0 Bft) N 0,00 h -3,5 C 0,5 C 0,0 km/h (0 Bft)
01.03.2023 19:00 -0,3 C 5,1 C -39,6 C -1,0 C -2,5 C 0,0 C 73 % 69 % 1026,6 hPa 0,0 l/m 0,0 km/h (0 Bft) N 0,00 h -4,6 C -2,5 C 0,0 km/h (0 Bft)
01.03.2023 20:00 -1,6 C 5,1 C -39,6 C -2,2 C -3,5 C 0,0 C 77 % 74 % 1026,5 hPa 0,0 l/m 0,0 km/h (0 Bft) N 0,00 h -5,1 C -3,5 C 0,0 km/h (0 Bft)
01.03.2023 21:00 -2,2 C 5,2 C -39,6 C -2,8 C -3,9 C 0,0 C 80 % 77 % 1026,2 hPa 0,0 l/m 0,0 km/h (0 Bft) N 0,00 h -5,1 C -3,9 C 0,0 km/h (0 Bft)
01.03.2023 22:00 -2,6 C 5,3 C -39,6 C -3,1 C -4,2 C 0,0 C 83 % 79 % 1026,2 hPa 0,0 l/m 0,0 km/h (0 Bft) N 0,00 h -5,2 C -4,2 C 0,0 km/h (0 Bft)
01.03.2023 23:00 -2,9 C 5,3 C -39,6 C -3,3 C -4,2 C 0,0 C 84 % 79 % 1025,8 hPa 0,0 l/m 0,0 km/h (0 Bft) N 0,00 h -5,2 C -4,2 C 0,0 km/h (0 Bft)
02.03.2023 00:00 -3,3 C 5,3 C -39,6 C -3,8 C -4,6 C 0,0 C 85 % 81 % 1025,6 hPa 0,0 l/m 0,0 km/h (0 Bft) N 0,00 h -5,5 C -4,6 C 0,0 km/h (0 Bft)
02.03.2023 01:00 -3,6 C 5,3 C -39,6 C -3,9 C -4,7 C 0,0 C 86 % 81 % 1025,2 hPa 0,0 l/m 0,0 km/h (0 Bft) N 0,00 h -5,6 C -4,7 C 0,0 km/h (0 Bft)
02.03.2023 02:00 -3,2 C 5,2 C -39,6 C -3,5 C -4,2 C 0,0 C 86 % 81 % 1024,9 hPa 0,0 l/m 0,0 km/h (0 Bft) N 0,00 h -5,2 C -4,2 C 0,0 km/h (0 Bft)
02.03.2023 03:00 -2,8 C 5,0 C -39,6 C -3,2 C -3,9 C 0,0 C 85 % 80 % 1024,8 hPa 0,0 l/m 0,0 km/h (0 Bft) N 0,00 h -4,9 C -3,9 C 0,0 km/h (0 Bft)
02.03.2023 04:00 -2,8 C 5,0 C -39,6 C -3,2 C -4,0 C 0,0 C 84 % 79 % 1024,1 hPa 0,0 l/m 0,0 km/h (0 Bft) N 0,00 h -5,1 C -4,0 C 0,0 km/h (0 Bft)
02.03.2023 05:00 -3,6 C 5,0 C -39,6 C -4,1 C -5,0 C 0,0 C 84 % 80 % 1023,9 hPa 0,0 l/m 0,0 km/h (0 Bft) N 0,00 h -5,9 C -5,0 C 0,0 km/h (0 Bft)
02.03.2023 06:00 -4,0 C 5,0 C -39,6 C -4,4 C -5,4 C 0,0 C 85 % 81 % 1023,5 hPa 0,0 l/m 0,0 km/h (0 Bft) N 0,00 h -6,2 C -5,4 C 0,0 km/h (0 Bft)
02.03.2023 07:00 -4,0 C 4,8 C -39,6 C -4,2 C -4,8 C 0,0 C 86 % 81 % 1024,1 hPa 0,0 l/m 0,0 km/h (0 Bft) N 0,00 h -6,0 C -4,8 C 0,0 km/h (0 Bft)
02.03.2023 08:00 -3,1 C 4,7 C -39,6 C -2,0 C -2,0 C 1,0 C 86 % 81 % 1023,9 hPa 0,0 l/m 0,0 km/h (0 Bft) N 0,00 h -5,0 C -2,0 C 0,0 km/h (0 Bft)
02.03.2023 09:00 -1,0 C 4,6 C -39,6 C 0,4 C 0,4 C 1,4 C 86 % 74 % 1023,9 hPa 0,0 l/m 0,0 km/h (0 Bft) N 0,00 h -3,1 C 0,4 C 0,0 km/h (0 Bft)
02.03.2023 10:00 2,0 C 4,5 C -39,6 C 4,6 C 4,6 C 2,5 C 79 % 65 % 1023,4 hPa 0,0 l/m 0,1 km/h (0 Bft) N 0,17 h -1,2 C 4,6 C 0,4 km/h (0 Bft)
02.03.2023 11:00 4,0 C 4,5 C -39,6 C 6,7 C 6,7 C 2,7 C 66 % 56 % 1023,3 hPa 0,0 l/m 2,4 km/h (1 Bft) O-NO 0,33 h -1,8 C 6,6 C 4,2 km/h (1 Bft)
02.03.2023 12:00 4,8 C 4,5 C -39,6 C 9,5 C 9,5 C 4,7 C 61 % 53 % 1023,8 hPa 0,0 l/m 3,5 km/h (1 Bft) O-NO 0,92 h -2,1 C 9,5 C 5,3 km/h (1 Bft)
02.03.2023 13:00 6,1 C 4,6 C -39,6 C 11,7 C 11,7 C 5,6 C 61 % 52 % 1023,5 hPa 0,0 l/m 2,0 km/h (1 Bft) O-NO 1,00 h -0,9 C 11,7 C 2,5 km/h (1 Bft)
02.03.2023 14:00 7,1 C 4,8 C -39,6 C 12,6 C 12,6 C 5,5 C 55 % 45 % 1022,2 hPa 0,0 l/m 2,2 km/h (1 Bft) O-NO 1,02 h -1,4 C 12,6 C 2,6 km/h (1 Bft)
02.03.2023 15:00 7,4 C 5,0 C -39,6 C 11,9 C 11,9 C 4,5 C 53 % 42 % 1022,0 hPa 0,0 l/m 1,7 km/h (1 Bft) NO 0,98 h -1,6 C 11,9 C 2,7 km/h (1 Bft)
02.03.2023 16:00 7,0 C 5,1 C -39,6 C 9,3 C 9,3 C 2,2 C 55 % 46 % 1021,9 hPa 0,0 l/m 1,5 km/h (1 Bft) NO 0,52 h -1,3 C 9,3 C 2,9 km/h (1 Bft)
02.03.2023 17:00 6,3 C 5,2 C -39,6 C 6,7 C 6,6 C 0,5 C 59 % 51 % 1021,9 hPa 0,0 l/m 0,1 km/h (0 Bft) N 0,33 h -1,1 C 6,6 C 0,3 km/h (0 Bft)
02.03.2023 18:00 3,9 C 5,4 C -39,6 C 3,3 C 2,1 C 0,0 C 65 % 59 % 1021,9 hPa 0,0 l/m 0,0 km/h (0 Bft) N 0,00 h -2,0 C 2,1 C 0,0 km/h (0 Bft)
02.03.2023 19:00 1,8 C 5,5 C -39,6 C 1,2 C -0,0 C 0,0 C 71 % 69 % 1021,9 hPa 0,0 l/m 0,0 km/h (0 Bft) N 0,00 h -2,8 C -0,0 C 0,0 km/h (0 Bft)
02.03.2023 20:00 -0,3 C 5,6 C -39,6 C -1,1 C -2,6 C 0,0 C 76 % 73 % 1022,8 hPa 0,0 l/m 0,0 km/h (0 Bft) N 0,00 h -4,1 C -2,6 C 0,0 km/h (0 Bft)
02.03.2023 21:00 -1,0 C 5,8 C -39,6 C -1,4 C -2,3 C 0,0 C 80 % 76 % 1022,9 hPa 0,0 l/m 0,0 km/h (0 Bft) N 0,00 h -4,0 C -2,3 C 0,0 km/h (0 Bft)
02.03.2023 22:00 -1,0 C 5,8 C -39,6 C -1,5 C -2,4 C 0,0 C 82 % 78 % 1023,1 hPa 0,0 l/m 0,0 km/h (0 Bft) N 0,00 h -3,7 C -2,4 C 0,0 km/h (0 Bft)
02.03.2023 23:00 -2,1 C 5,8 C -39,6 C -2,5 C -3,5 C 0,0 C 84 % 79 % 1023,2 hPa 0,0 l/m 0,0 km/h (0 Bft) N 0,00 h -4,5 C -3,5 C 0,0 km/h (0 Bft)
03.03.2023 00:00 -2,2 C 5,8 C -39,6 C -2,3 C -2,6 C 0,0 C 85 % 80 % 1023,0 hPa 0,0 l/m 0,0 km/h (0 Bft) N 0,00 h -4,3 C -2,6 C 0,0 km/h (0 Bft)
03.03.2023 01:00 -1,2 C 5,9 C -39,6 C -1,3 C -1,4 C 0,0 C 87 % 79 % 1022,9 hPa 0,0 l/m 0,0 km/h (0 Bft) N 0,00 h -3,1 C -1,4 C 0,0 km/h (0 Bft)
03.03.2023 02:00 -1,0 C 5,8 C -39,6 C -1,1 C -1,2 C 0,0 C 87 % 79 % 1022,9 hPa 0,0 l/m 0,0 km/h (0 Bft) N 0,00 h -2,8 C -1,2 C 0,0 km/h (0 Bft)
03.03.2023 03:00 -1,1 C 5,7 C -39,6 C -1,2 C -1,4 C 0,0 C 88 % 79 % 1022,9 hPa 0,0 l/m 0,0 km/h (0 Bft) N 0,00 h -2,8 C -1,4 C 0,0 km/h (0 Bft)
03.03.2023 04:00 -1,3 C 5,7 C -39,6 C -1,4 C -1,6 C 0,0 C 88 % 80 % 1022,9 hPa 0,0 l/m 0,0 km/h (0 Bft) N 0,00 h -3,0 C -1,6 C 0,0 km/h (0 Bft)
03.03.2023 05:00 -1,4 C 5,5 C -39,6 C -1,4 C -1,6 C 0,0 C 88 % 80 % 1022,8 hPa 0,0 l/m 0,1 km/h (0 Bft) N 0,00 h -3,0 C -1,6 C 0,3 km/h (0 Bft)
03.03.2023 06:00 -1,6 C 5,5 C -39,6 C -1,6 C -1,7 C 0,0 C 89 % 80 % 1022,7 hPa 0,0 l/m 0,0 km/h (0 Bft) N 0,00 h -3,1 C -1,7 C 0,0 km/h (0 Bft)
03.03.2023 07:00 -1,7 C 5,4 C -39,6 C -1,6 C -1,7 C 0,0 C 89 % 80 % 1023,1 hPa 0,0 l/m 0,1 km/h (0 Bft) N 0,00 h -3,2 C -1,7 C 0,2 km/h (0 Bft)
03.03.2023 08:00 -1,7 C 5,4 C -39,6 C -1,5 C -1,5 C 0,2 C 89 % 80 % 1023,2 hPa 0,0 l/m 0,1 km/h (0 Bft) N 0,00 h -3,2 C -1,5 C 0,0 km/h (0 Bft)
03.03.2023 09:00 -1,5 C 5,4 C -39,6 C -0,9 C -0,9 C 0,6 C 89 % 80 % 1023,6 hPa 0,0 l/m 0,2 km/h (0 Bft) N 0,00 h -3,1 C -0,9 C 0,2 km/h (0 Bft)
03.03.2023 10:00 -1,3 C 5,4 C -39,6 C -0,5 C -0,5 C 0,8 C 89 % 79 % 1023,9 hPa 0,0 l/m 0,5 km/h (0 Bft) N 0,00 h -2,9 C -0,5 C 1,3 km/h (1 Bft)
03.03.2023 11:00 -1,3 C 5,4 C -39,6 C 0,3 C 0,3 C 1,5 C 89 % 78 % 1024,6 hPa 0,0 l/m 0,7 km/h (0 Bft) S-SW 0,00 h -2,8 C 0,3 C 1,6 km/h (1 Bft)
03.03.2023 12:00 -1,2 C 5,3 C -36,3 C 0,5 C 0,5 C 1,7 C 89 % 71 % 1024,8 hPa 0,0 l/m 0,9 km/h (0 Bft) S-SW 0,00 h -2,8 C 0,5 C 2,3 km/h (1 Bft)
03.03.2023 13:00 -1,2 C 5,2 C -39,6 C -0,0 C -0,0 C 1,1 C 89 % 77 % 1025,0 hPa 0,0 l/m 0,9 km/h (0 Bft) SW 0,00 h -2,7 C -0,0 C 1,5 km/h (1 Bft)
03.03.2023 14:00 -0,5 C 5,0 C -39,6 C 0,9 C 0,9 C 1,4 C 89 % 75 % 1024,2 hPa 0,0 l/m 0,2 km/h (0 Bft) N 0,00 h -2,1 C 0,9 C 0,4 km/h (0 Bft)
03.03.2023 15:00 -0,1 C 5,0 C -39,6 C 0,7 C 0,7 C 0,8 C 88 % 75 % 1024,4 hPa 0,0 l/m 0,1 km/h (0 Bft) N 0,00 h -1,8 C 0,7 C 0,7 km/h (0 Bft)
03.03.2023 16:00 0,1 C 5,0 C -39,6 C 0,5 C 0,5 C 0,4 C 87 % 75 % 1024,0 hPa 0,0 l/m 0,0 km/h (0 Bft) N 0,00 h -1,7 C 0,5 C 0,0 km/h (0 Bft)
03.03.2023 17:00 0,2 C 5,1 C -39,6 C 0,2 C 0,1 C 0,0 C 87 % 77 % 1023,8 hPa 0,0 l/m 0,0 km/h (0 Bft) N 0,00 h -1,7 C 0,1 C 0,0 km/h (0 Bft)
03.03.2023 18:00 0,1 C 5,1 C -39,6 C 0,0 C -0,1 C 0,0 C 87 % 77 % 1023,9 hPa 0,0 l/m 0,0 km/h (0 Bft) N 0,00 h -1,8 C -0,1 C 0,0 km/h (0 Bft)
03.03.2023 19:00 0,2 C 5,1 C -39,6 C 0,2 C 0,1 C 0,0 C 87 % 77 % 1023,7 hPa 0,0 l/m 0,0 km/h (0 Bft) N 0,00 h -1,7 C 0,1 C 0,0 km/h (0 Bft)
03.03.2023 20:00 0,4 C 5,1 C -39,6 C 0,3 C 0,1 C 0,0 C 87 % 78 % 1023,9 hPa 0,0 l/m 0,0 km/h (0 Bft) N 0,00 h -1,5 C 0,1 C 0,0 km/h (0 Bft)
03.03.2023 21:00 0,4 C 5,1 C -39,6 C 0,4 C 0,3 C 0,0 C 87 % 78 % 1024,0 hPa 0,0 l/m 0,0 km/h (0 Bft) N 0,00 h -1,5 C 0,3 C 0,1 km/h (0 Bft)
03.03.2023 22:00 0,4 C 5,1 C -36,3 C 0,4 C 0,3 C 0,0 C 87 % 71 % 1023,8 hPa 0,0 l/m 0,2 km/h (0 Bft) N 0,00 h -1,5 C 0,3 C 0,5 km/h (0 Bft)
03.03.2023 23:00 0,4 C 5,1 C -39,6 C 0,3 C 0,2 C 0,0 C 87 % 78 % 1024,2 hPa 0,0 l/m 0,9 km/h (0 Bft) W-SW 0,00 h -1,5 C 0,2 C 2,9 km/h (1 Bft)
04.03.2023 00:00 0,2 C 5,1 C -39,6 C 0,1 C 0,0 C 0,0 C 87 % 77 % 1024,2 hPa 0,0 l/m 0,7 km/h (0 Bft) SW 0,00 h -1,7 C 0,0 C 0,0 km/h (0 Bft)
04.03.2023 01:00 -0,0 C 5,1 C -39,6 C -0,1 C -0,2 C 0,0 C 87 % 78 % 1023,7 hPa 0,0 l/m 0,3 km/h (0 Bft) N 0,00 h -1,9 C -0,2 C 0,4 km/h (0 Bft)
04.03.2023 02:00 0,1 C 5,1 C -36,6 C 0,0 C -0,1 C 0,0 C 87 % 72 % 1022,0 hPa 0,0 l/m 0,4 km/h (0 Bft) N 0,00 h -1,8 C -0,1 C 1,4 km/h (1 Bft)
04.03.2023 03:00 0,2 C 5,1 C -39,6 C 0,2 C 0,1 C 0,0 C 87 % 78 % 1021,9 hPa 0,0 l/m 1,2 km/h (1 Bft) S-SW 0,00 h -1,7 C 0,1 C 2,7 km/h (1 Bft)
04.03.2023 04:00 0,4 C 5,1 C -39,6 C 0,4 C 0,3 C 0,0 C 87 % 78 % 1021,4 hPa 0,0 l/m 0,6 km/h (0 Bft) N 0,00 h -1,5 C 0,3 C 0,7 km/h (0 Bft)
04.03.2023 05:00 0,6 C 5,1 C -39,6 C 0,5 C 0,4 C 0,0 C 87 % 78 % 1020,8 hPa 0,0 l/m 0,4 km/h (0 Bft) W 0,00 h -1,3 C 0,4 C 1,4 km/h (1 Bft)
04.03.2023 06:00 0,8 C 5,0 C -39,6 C 0,7 C 0,6 C 0,0 C 86 % 77 % 1020,7 hPa 0,0 l/m 0,2 km/h (0 Bft) N 0,00 h -1,3 C 0,6 C 0,0 km/h (0 Bft)
04.03.2023 07:00 1,0 C 5,0 C -39,6 C 1,0 C 1,0 C 0,0 C 86 % 77 % 1020,4 hPa 0,0 l/m 0,2 km/h (0 Bft) N 0,00 h -1,1 C 1,0 C 0,3 km/h (0 Bft)
04.03.2023 08:00 1,4 C 5,0 C -39,6 C 1,5 C 1,5 C 0,1 C 86 % 76 % 1020,2 hPa 0,0 l/m 0,9 km/h (0 Bft) S-SW 0,00 h -0,7 C 1,5 C 3,1 km/h (1 Bft)
04.03.2023 09:00 1,9 C 5,0 C -39,6 C 2,2 C 2,2 C 0,3 C 85 % 75 % 1019,9 hPa 0,0 l/m 2,6 km/h (1 Bft) S 0,00 h -0,3 C 1,9 C 4,2 km/h (1 Bft)
04.03.2023 10:00 2,7 C 5,0 C -39,6 C 2,6 C 2,4 C 0,1 C 84 % 72 % 1020,0 hPa 0,0 l/m 5,4 km/h (1 Bft) SW 0,00 h 0,2 C 1,2 C 7,5 km/h (2 Bft)
04.03.2023 11:00 3,5 C 5,0 C -39,6 C 3,7 C 3,7 C 0,2 C 83 % 71 % 1019,5 hPa 0,0 l/m 5,5 km/h (1 Bft) SW 0,00 h 1,0 C 2,4 C 8,2 km/h (2 Bft)
04.03.2023 12:00 4,2 C 5,0 C -39,6 C 4,6 C 4,6 C 0,4 C 81 % 69 % 1019,3 hPa 0,0 l/m 4,5 km/h (1 Bft) SW 0,00 h 1,3 C 4,2 C 4,3 km/h (1 Bft)
04.03.2023 13:00 4,8 C 5,1 C -39,6 C 5,4 C 5,3 C 0,6 C 80 % 68 % 1019,0 hPa 0,0 l/m 3,9 km/h (1 Bft) SW 0,00 h 1,6 C 5,1 C 4,9 km/h (1 Bft)
04.03.2023 14:00 5,3 C 5,2 C -39,6 C 6,3 C 6,3 C 1,0 C 78 % 67 % 1018,5 hPa 0,0 l/m 3,5 km/h (1 Bft) SW 0,00 h 1,9 C 6,1 C 4,5 km/h (1 Bft)
04.03.2023 15:00 5,5 C 5,2 C -39,6 C 6,1 C 6,1 C 0,6 C 78 % 66 % 1017,9 hPa 0,0 l/m 1,9 km/h (1 Bft) SW 0,00 h 2,0 C 6,1 C 4,2 km/h (1 Bft)
04.03.2023 16:00 5,1 C 5,3 C -39,6 C 5,7 C 5,7 C 0,5 C 80 % 70 % 1017,8 hPa 0,0 l/m 1,4 km/h (1 Bft) SW 0,00 h 1,9 C 5,7 C 1,4 km/h (1 Bft)
04.03.2023 17:00 5,1 C 5,4 C -39,6 C 5,4 C 5,4 C 0,3 C 76 % 67 % 1017,8 hPa 0,0 l/m 0,9 km/h (0 Bft) W-SW 0,00 h 1,3 C 5,4 C 1,3 km/h (1 Bft)
04.03.2023 18:00 4,6 C 5,4 C -39,6 C 4,5 C 4,3 C 0,0 C 76 % 67 % 1017,9 hPa 0,0 l/m 0,1 km/h (0 Bft) N 0,00 h 0,7 C 4,3 C 0,3 km/h (0 Bft)
04.03.2023 19:00 4,1 C 5,6 C -39,6 C 4,1 C 4,0 C 0,0 C 77 % 68 % 1018,2 hPa 0,0 l/m 0,4 km/h (0 Bft) N 0,00 h 0,6 C 4,0 C 0,7 km/h (0 Bft)
04.03.2023 20:00 3,7 C 5,6 C -39,6 C 3,6 C 3,5 C 0,0 C 78 % 69 % 1018,5 hPa 0,0 l/m 0,5 km/h (0 Bft) N 0,00 h 0,2 C 3,5 C 0,0 km/h (0 Bft)
04.03.2023 21:00 3,2 C 5,7 C -39,6 C 3,1 C 3,0 C 0,0 C 80 % 71 % 1018,9 hPa 0,0 l/m 0,2 km/h (0 Bft) N 0,00 h 0,0 C 3,0 C 1,3 km/h (1 Bft)
04.03.2023 22:00 3,0 C 5,7 C -39,6 C 2,9 C 2,8 C 0,0 C 80 % 71 % 1018,6 hPa 0,0 l/m 0,3 km/h (0 Bft) N 0,00 h -0,1 C 2,8 C 1,2 km/h (1 Bft)
04.03.2023 23:00 2,7 C 5,7 C -39,6 C 2,6 C 2,4 C 0,0 C 80 % 72 % 1018,9 hPa 0,0 l/m 0,3 km/h (0 Bft) N 0,00 h -0,4 C 2,4 C 0,9 km/h (0 Bft)
05.03.2023 00:00 2,4 C 5,6 C -39,6 C 2,3 C 2,2 C 0,0 C 79 % 71 % 1018,4 hPa 0,0 l/m 0,6 km/h (0 Bft) S 0,00 h -0,9 C 2,2 C 3,1 km/h (1 Bft)
05.03.2023 01:00 1,9 C 5,6 C -39,6 C 1,8 C 1,7 C 0,0 C 77 % 69 % 1017,8 hPa 0,0 l/m 1,2 km/h (1 Bft) SW 0,00 h -1,6 C 1,7 C 3,0 km/h (1 Bft)
05.03.2023 02:00 1,5 C 5,6 C -39,6 C 1,4 C 1,2 C 0,0 C 79 % 71 % 1017,5 hPa 0,0 l/m 1,2 km/h (1 Bft) W-SW 0,00 h -1,7 C 1,2 C 1,7 km/h (1 Bft)
05.03.2023 03:00 1,1 C 5,5 C -39,6 C 1,0 C 0,8 C 0,0 C 79 % 72 % 1016,9 hPa 0,0 l/m 1,3 km/h (1 Bft) SW 0,00 h -2,1 C 0,8 C 3,3 km/h (1 Bft)
05.03.2023 04:00 0,9 C 5,5 C -39,6 C 0,8 C 0,6 C 0,0 C 80 % 74 % 1016,4 hPa 0,0 l/m 1,4 km/h (1 Bft) W-SW 0,00 h -2,2 C 0,6 C 3,7 km/h (1 Bft)
05.03.2023 05:00 0,8 C 5,5 C -39,6 C 0,6 C 0,3 C 0,0 C 81 % 74 % 1016,3 hPa 0,0 l/m 0,2 km/h (0 Bft) SW 0,00 h -2,1 C 0,3 C 0,3 km/h (0 Bft)
05.03.2023 06:00 1,1 C 5,4 C -39,6 C 0,9 C 0,6 C 0,0 C 80 % 75 % 1015,8 hPa 0,0 l/m 2,3 km/h (1 Bft) SW 0,00 h -1,9 C 0,6 C 3,8 km/h (1 Bft)
05.03.2023 07:00 1,2 C 5,4 C -39,6 C 1,0 C 0,5 C 0,0 C 80 % 73 % 1015,4 hPa 0,0 l/m 3,4 km/h (1 Bft) SW 0,00 h -1,8 C 0,1 C 7,0 km/h (2 Bft)
05.03.2023 08:00 1,5 C 5,4 C -39,6 C 1,4 C 1,1 C 0,1 C 82 % 73 % 1015,3 hPa 0,0 l/m 3,9 km/h (1 Bft) SW 0,00 h -1,3 C 0,8 C 5,5 km/h (1 Bft)
05.03.2023 09:00 1,7 C 5,5 C -39,6 C 1,6 C 1,4 C 0,1 C 81 % 72 % 1015,1 hPa 0,0 l/m 4,0 km/h (1 Bft) SW 0,00 h -1,2 C 0,9 C 5,2 km/h (1 Bft)
05.03.2023 10:00 1,9 C 5,5 C -39,6 C 2,9 C 2,9 C 1,0 C 85 % 74 % 1015,5 hPa 0,0 l/m 3,3 km/h (1 Bft) W-SW 0,00 h -0,4 C 2,9 C 6,1 km/h (2 Bft)
05.03.2023 11:00 2,9 C 5,4 C -39,6 C 3,4 C 3,2 C 0,5 C 82 % 70 % 1015,1 hPa 0,0 l/m 6,7 km/h (2 Bft) SW 0,00 h 0,1 C 1,5 C 9,8 km/h (2 Bft)
05.03.2023 12:00 3,2 C 5,3 C -39,6 C 3,2 C 2,8 C 0,2 C 79 % 67 % 1014,7 hPa 0,0 l/m 6,4 km/h (2 Bft) SW 0,00 h -0,1 C 1,1 C 8,6 km/h (2 Bft)
05.03.2023 13:00 3,5 C 5,3 C -39,6 C 3,5 C 3,2 C 0,2 C 77 % 66 % 1014,9 hPa 0,0 l/m 7,0 km/h (2 Bft) SW 0,00 h -0,2 C 1,4 C 8,6 km/h (2 Bft)
05.03.2023 14:00 2,6 C 5,6 C -39,6 C 2,5 C 2,0 C 0,2 C 83 % 71 % 1013,8 hPa 0,0 l/m 5,0 km/h (1 Bft) S 0,00 h -0,0 C 1,1 C 6,7 km/h (2 Bft)
05.03.2023 15:00 3,2 C 5,4 C -39,6 C 3,3 C 3,0 C 0,2 C 81 % 72 % 1013,1 hPa 0,0 l/m 4,0 km/h (1 Bft) SW 0,00 h 0,3 C 2,5 C 5,4 km/h (1 Bft)
05.03.2023 16:00 2,8 C 5,6 C -39,6 C 2,7 C 2,6 C 0,1 C 81 % 74 % 1012,0 hPa 0,0 l/m 0,9 km/h (0 Bft) SW 0,00 h -0,1 C 2,6 C 2,1 km/h (1 Bft)
05.03.2023 17:00 3,0 C 5,4 C -39,6 C 3,0 C 2,9 C 0,1 C 80 % 74 % 1011,2 hPa 0,0 l/m 2,0 km/h (1 Bft) SW 0,00 h -0,1 C 2,8 C 3,2 km/h (1 Bft)
05.03.2023 18:00 2,8 C 5,5 C -39,6 C 2,7 C 2,5 C 0,0 C 79 % 74 % 1011,5 hPa 0,0 l/m 1,7 km/h (1 Bft) SW 0,00 h -0,5 C 2,5 C 2,4 km/h (1 Bft)
05.03.2023 19:00 2,6 C 5,5 C -39,6 C 2,5 C 2,3 C 0,0 C 80 % 75 % 1011,7 hPa 0,0 l/m 1,5 km/h (1 Bft) SW 0,00 h -0,5 C 2,3 C 1,9 km/h (1 Bft)
05.03.2023 20:00 2,3 C 5,5 C -39,6 C 2,2 C 2,0 C 0,0 C 81 % 75 % 1011,0 hPa 0,0 l/m 1,1 km/h (1 Bft) S-SW 0,00 h -0,6 C 2,0 C 1,2 km/h (1 Bft)
05.03.2023 21:00 1,7 C 5,6 C -39,6 C 1,4 C 0,7 C 0,0 C 82 % 76 % 1010,8 hPa 0,0 l/m 0,5 km/h (0 Bft) W-SW 0,00 h -1,1 C 0,7 C 0,6 km/h (0 Bft)
05.03.2023 22:00 1,3 C 5,6 C -39,6 C 1,0 C 0,4 C 0,0 C 83 % 77 % 1010,3 hPa 0,0 l/m 0,3 km/h (0 Bft) N 0,00 h -1,2 C 0,4 C 0,3 km/h (0 Bft)
05.03.2023 23:00 1,2 C 5,6 C -39,6 C 1,1 C 0,7 C 0,0 C 83 % 77 % 1009,7 hPa 0,0 l/m 0,6 km/h (0 Bft) S 0,00 h -1,3 C 0,7 C 1,4 km/h (1 Bft)
Min-Datum _ 01.03.23 01.03.23 27.02.23 01.03.23 01.03.23 27.02.23 02.03.23 03.03.23 05.03.23 - 27.02.23 - - 01.03.23 01.03.23 27.02.23
_ Min-Zeit 07:05 12:30 00:00 07:05 07:10 00:00 15:20 12:16 23:25 - 00:00 - - 07:05 07:10 00:00
Minimum _ -6,8 C 4,3 C -39,6 C -7,4 C -8,7 C 0,0 C 50 % 0 % 1009,6 hPa - 0,0 km/h (0 Bft) - - -8,4 C -8,7 C 0,0 km/h (0 Bft)
Max-Datum _ 02.03.23 27.02.23 03.03.23 02.03.23 02.03.23 02.03.23 27.02.23 27.02.23 28.02.23 27.02.23 28.02.23 - 02.03.23 04.03.23 02.03.23 28.02.23
_ Max-Zeit 15:01 00:55 12:16 14:00 14:00 13:55 05:45 00:00 11:45 13:10 11:40 - 14:42 14:55 14:00 11:55
Maximum _ 7,5 C 6,0 C 0,0 C 13,9 C 13,9 C 6,9 C 89 % 85 % 1031,1 hPa 0,7 l/m 11,4 km/h
O-NO (2 Bft)
- 0,27 h 2,3 C 13,9 C 17,9 km/h
O-NO (3 Bft)
Durchschnitt _ 0,1 C 5,2 C -39,5 C 0,6 C 0,2 C 0,7 C 81 % 73 % 1023,9 hPa #1,4 l/m 1,0 km/h (0 Bft) SW #13:36 h -2,9 C 0,1 C 1,6 km/h (1 Bft)
2023 www.wetterstation-wechselburg.de